Time;durP1;ratioP1;P1;durP2;ratioP2;P2;SDS_P1;SDS_P2;PMS_P1;PMS_P2;Temp;Humidity;BMP_temperature;BMP_pressure;BME280_temperature;BME280_humidity;BME280_pressure;Samples;Min_cycle;Max_cycle;Signal;HPM_P1;HPM_P2
2024/01/20 00:02:11;;;;;;;0.50;0.33;;;3.70;56.30;;;;;;6125328;23;20361;-69
2024/01/20 00:11:24;;;;;;;1.20;0.60;;;3.60;56.40;;;;;;6049433;23;20013;-67
2024/01/20 00:17:25;;;;;;;1.10;0.60;;;3.60;54.50;;;;;;6057884;23;20054;-67
2024/01/20 00:19:51;;;;;;;1.43;0.40;;;3.60;55.90;;;;;;6066987;23;20010;-67
2024/01/20 00:22:17;;;;;;;3.23;0.50;;;3.60;55.90;;;;;;6131949;23;20309;-67
2024/01/20 00:24:42;;;;;;;1.07;0.50;;;3.50;54.60;;;;;;6186351;23;20016;-67
2024/01/20 00:27:08;;;;;;;1.40;0.57;;;3.50;54.50;;;;;;6186122;23;20051;-67
2024/01/20 00:29:34;;;;;;;1.63;0.70;;;3.50;54.30;;;;;;6186345;23;20335;-67
2024/01/20 00:32:00;;;;;;;1.80;0.33;;;3.50;55.20;;;;;;6185782;23;20001;-67
2024/01/20 00:34:26;;;;;;;2.23;0.50;;;3.50;54.60;;;;;;6185719;23;20017;-67
2024/01/20 00:36:51;;;;;;;0.70;0.50;;;3.50;52.30;;;;;;6185899;23;20036;-67
2024/01/20 00:39:17;;;;;;;1.00;0.50;;;3.50;53.70;;;;;;6186051;23;20001;-67
2024/01/20 00:41:43;;;;;;;0.70;0.40;;;3.50;54.60;;;;;;6186098;23;20003;-67
2024/01/20 00:44:08;;;;;;;0.83;0.50;;;3.50;54.50;;;;;;6186164;23;20005;-68
2024/01/20 00:46:35;;;;;;;0.60;0.33;;;3.50;54.30;;;;;;6186208;23;20001;-67
2024/01/20 00:49:00;;;;;;;1.30;0.43;;;3.50;54.00;;;;;;6186097;23;20008;-67
2024/01/20 00:51:26;;;;;;;1.23;0.47;;;3.50;54.90;;;;;;6186355;23;20109;-67
2024/01/20 00:53:52;;;;;;;1.07;0.50;;;3.50;54.60;;;;;;6186035;23;20009;-65
2024/01/20 00:56:17;;;;;;;0.70;0.40;;;3.40;54.50;;;;;;6186198;23;20005;-67
2024/01/20 00:58:43;;;;;;;0.63;0.50;;;3.40;54.70;;;;;;6185544;23;20034;-67
2024/01/20 01:01:09;;;;;;;1.37;0.50;;;3.40;55.30;;;;;;6185574;23;20001;-67
2024/01/20 01:03:36;;;;;;;1.40;0.50;;;3.40;55.50;;;;;;6185439;23;20039;-67
2024/01/20 01:06:02;;;;;;;2.27;0.70;;;3.40;54.50;;;;;;6185563;23;20003;-67
2024/01/20 01:08:28;;;;;;;0.73;0.40;;;3.40;56.40;;;;;;6185687;23;20083;-67
2024/01/20 01:10:55;;;;;;;0.67;0.30;;;3.40;56.10;;;;;;6185675;23;20091;-66
2024/01/20 01:13:21;;;;;;;0.97;0.40;;;3.40;55.20;;;;;;6186305;23;20327;-68
2024/01/20 01:15:47;;;;;;;0.83;0.60;;;3.30;55.20;;;;;;6186589;23;20132;-67
2024/01/20 01:18:12;;;;;;;1.23;0.53;;;3.30;55.30;;;;;;6186596;23;20490;-67
2024/01/20 01:20:38;;;;;;;0.77;0.50;;;3.30;56.40;;;;;;6186453;23;20440;-67
2024/01/20 01:23:04;;;;;;;1.43;0.80;;;3.30;56.30;;;;;;6186143;23;19997;-67
2024/01/20 01:30:00;;;;;;;1.17;0.60;;;3.30;55.90;;;;;;6066153;23;20338;-68
2024/01/20 01:49:15;;;;;;;0.93;0.50;;;3.00;56.50;;;;;;6041786;23;20013;-68
2024/01/20 01:51:41;;;;;;;0.90;0.50;;;3.00;54.50;;;;;;6065737;23;20427;-67
2024/01/20 01:54:08;;;;;;;0.70;0.33;;;3.00;55.30;;;;;;6179734;23;20313;-67
2024/01/20 01:56:35;;;;;;;0.87;0.60;;;3.00;56.00;;;;;;6185586;23;20030;-67
2024/01/20 01:59:01;;;;;;;0.67;0.40;;;3.00;56.80;;;;;;6182714;23;20012;-67
2024/01/20 02:01:26;;;;;;;0.73;0.40;;;3.00;55.90;;;;;;6181993;23;20005;-67
2024/01/20 02:03:52;;;;;;;0.70;0.30;;;3.00;53.10;;;;;;6182313;23;20054;-68
2024/01/20 02:06:18;;;;;;;2.13;0.47;;;3.00;54.70;;;;;;6184914;23;20421;-67
2024/01/20 02:08:44;;;;;;;1.40;0.53;;;3.10;54.90;;;;;;6185305;23;20013;-67
2024/01/20 02:11:10;;;;;;;1.30;0.70;;;3.20;53.30;;;;;;6185107;23;20071;-67
2024/01/20 02:13:36;;;;;;;1.10;0.67;;;3.20;53.90;;;;;;6184930;23;20044;-67
2024/01/20 02:16:03;;;;;;;1.67;0.60;;;3.10;54.70;;;;;;6158386;23;20328;-67
2024/01/20 02:18:29;;;;;;;1.57;0.53;;;3.10;55.20;;;;;;6185419;23;20455;-68
2024/01/20 02:20:55;;;;;;;1.23;0.50;;;3.00;56.60;;;;;;6185043;23;20340;-68
2024/01/20 02:23:21;;;;;;;0.93;0.60;;;3.00;57.60;;;;;;6185262;23;20008;-67
2024/01/20 02:25:47;;;;;;;0.67;0.40;;;3.00;56.80;;;;;;6184815;23;19993;-67
2024/01/20 02:28:14;;;;;;;0.57;0.40;;;3.00;56.80;;;;;;6184364;23;20009;-67
2024/01/20 02:30:41;;;;;;;0.93;0.43;;;3.00;56.80;;;;;;6184869;23;20082;-67
2024/01/20 02:33:07;;;;;;;1.47;0.40;;;2.90;56.20;;;;;;6184749;23;20019;-67
2024/01/20 02:35:33;;;;;;;2.13;0.47;;;2.90;56.60;;;;;;6184884;23;20080;-67
2024/01/20 02:38:01;;;;;;;0.53;0.40;;;2.90;55.50;;;;;;6184842;23;20015;-67
2024/01/20 02:40:27;;;;;;;0.60;0.40;;;2.90;56.30;;;;;;6184798;23;20447;-67
2024/01/20 02:42:53;;;;;;;0.53;0.33;;;2.90;54.80;;;;;;6184619;23;20005;-67
2024/01/20 02:45:19;;;;;;;0.87;0.50;;;2.90;57.90;;;;;;6184864;23;19997;-67
2024/01/20 02:47:44;;;;;;;0.90;0.50;;;2.80;57.60;;;;;;6185531;23;20009;-67
2024/01/20 02:50:11;;;;;;;2.33;0.70;;;2.80;58.70;;;;;;6185041;23;20454;-68
2024/01/20 02:52:37;;;;;;;1.93;0.50;;;3.20;57.50;;;;;;6185515;23;20008;-68
2024/01/20 02:55:03;;;;;;;0.90;0.53;;;2.80;55.80;;;;;;6186235;23;20309;-67
2024/01/20 02:57:30;;;;;;;1.03;0.47;;;2.80;55.30;;;;;;6188162;23;20093;-68
2024/01/20 03:04:08;;;;;;;0.70;0.30;;;2.80;58.70;;;;;;5982031;24;20072;-67
2024/01/20 03:24:05;;;;;;;3.33;0.70;;;2.60;60.10;;;;;;6119110;23;20016;-67
2024/01/20 03:26:31;;;;;;;1.97;0.60;;;2.60;59.40;;;;;;6131615;23;20100;-67
2024/01/20 03:28:57;;;;;;;1.63;0.80;;;2.50;58.10;;;;;;6156859;23;20001;-67
2024/01/20 03:31:24;;;;;;;2.37;0.60;;;2.50;60.40;;;;;;6157156;23;20069;-69
2024/01/20 03:33:50;;;;;;;1.47;0.50;;;2.60;68.80;;;;;;6156674;23;20024;-67
2024/01/20 03:36:15;;;;;;;2.67;0.70;;;2.60;68.90;;;;;;6157392;23;20384;-67
2024/01/20 03:38:41;;;;;;;1.23;0.70;;;2.60;71.20;;;;;;6157456;23;20009;-67
2024/01/20 03:41:07;;;;;;;1.17;0.60;;;2.50;73.60;;;;;;6157013;23;20029;-67
2024/01/20 03:43:33;;;;;;;1.40;0.90;;;2.60;74.20;;;;;;6156717;23;20005;-67
2024/01/20 03:45:58;;;;;;;3.23;0.60;;;2.60;72.00;;;;;;6156735;23;20048;-67
2024/01/20 03:48:24;;;;;;;1.90;0.80;;;2.60;71.70;;;;;;6157021;23;20008;-67
2024/01/20 03:50:50;;;;;;;4.00;0.80;;;2.60;73.00;;;;;;6156996;23;20009;-67
2024/01/20 03:53:16;;;;;;;1.40;0.70;;;2.60;72.70;;;;;;6156522;23;20036;-67
2024/01/20 03:55:41;;;;;;;2.00;0.70;;;2.40;60.90;;;;;;6156844;23;20076;-67
2024/01/20 03:58:07;;;;;;;1.00;0.60;;;2.40;61.50;;;;;;6156720;23;20056;-67
2024/01/20 04:00:33;;;;;;;1.70;0.60;;;2.40;61.20;;;;;;6156867;23;20040;-67
2024/01/20 04:02:59;;;;;;;2.07;0.50;;;2.40;58.70;;;;;;6157019;23;19997;-65
2024/01/20 04:05:24;;;;;;;1.33;0.60;;;2.40;57.70;;;;;;6156435;23;20006;-68
2024/01/20 04:07:50;;;;;;;1.07;0.50;;;2.40;59.50;;;;;;6164281;23;20088;-67
2024/01/20 04:10:16;;;;;;;0.80;0.40;;;2.40;60.00;;;;;;6185875;23;20009;-66
2024/01/20 04:12:43;;;;;;;1.10;0.60;;;2.30;60.80;;;;;;6185851;23;20039;-67
2024/01/20 04:15:09;;;;;;;1.43;0.70;;;2.30;62.80;;;;;;6185752;23;20009;-67
2024/01/20 04:17:35;;;;;;;1.77;0.70;;;2.30;63.30;;;;;;6186092;23;20005;-67
2024/01/20 04:20:01;;;;;;;3.73;1.10;;;2.20;62.60;;;;;;6185806;23;20083;-67
2024/01/20 04:22:27;;;;;;;1.67;1.27;;;2.20;64.50;;;;;;6186113;23;20002;-67
2024/01/20 04:24:52;;;;;;;1.47;0.80;;;2.10;63.90;;;;;;6187388;23;20001;-67
2024/01/20 04:27:18;;;;;;;1.57;0.90;;;2.10;61.50;;;;;;6186847;23;20427;-67
2024/01/20 04:29:44;;;;;;;1.47;0.70;;;2.10;62.80;;;;;;6187056;23;20009;-67
2024/01/20 04:32:10;;;;;;;3.63;1.30;;;2.10;62.30;;;;;;6186825;23;19997;-67
2024/01/20 04:34:39;;;;;;;1.63;1.27;;;2.00;61.60;;;;;;6186906;23;20435;-67
2024/01/20 04:59:49;;;;;;;0.95;0.32;;;2.30;55.80;;;;;;6095203;23;20456;-68
2024/01/20 05:02:15;;;;;;;0.53;0.30;;;2.40;56.10;;;;;;6153764;23;20132;-67
2024/01/20 05:04:41;;;;;;;0.53;0.30;;;2.40;56.10;;;;;;6171381;23;20055;-67
2024/01/20 05:07:07;;;;;;;2.40;0.70;;;2.40;56.30;;;;;;6185363;23;20009;-67
2024/01/20 05:09:32;;;;;;;1.30;0.60;;;2.40;57.30;;;;;;6185799;23;20013;-67
2024/01/20 05:11:58;;;;;;;1.87;0.97;;;2.50;57.40;;;;;;6185911;23;19997;-65
2024/01/20 05:14:24;;;;;;;1.07;0.50;;;2.40;58.20;;;;;;6185440;23;20463;-64
2024/01/20 05:16:50;;;;;;;2.27;0.70;;;2.50;58.10;;;;;;6184952;23;20004;-65
2024/01/20 05:19:15;;;;;;;1.00;0.67;;;2.50;56.30;;;;;;6184755;23;20055;-65
2024/01/20 05:21:41;;;;;;;1.90;1.03;;;2.50;58.00;;;;;;6185016;23;20048;-65
2024/01/20 05:24:07;;;;;;;1.13;0.60;;;2.40;58.90;;;;;;6185658;23;20001;-65
2024/01/20 05:26:33;;;;;;;0.67;0.33;;;2.40;57.60;;;;;;6185902;23;20008;-64
2024/01/20 05:28:59;;;;;;;0.90;0.40;;;2.50;56.30;;;;;;6186148;23;20020;-68
2024/01/20 05:31:31;;;;;;;2.17;1.10;;;2.50;54.90;;;;;;6186133;23;20005;-67
2024/01/20 05:33:57;;;;;;;3.10;0.80;;;2.50;56.00;;;;;;6185773;23;20020;-68
2024/01/20 05:36:23;;;;;;;1.37;0.60;;;2.50;56.90;;;;;;6185823;23;19997;-67
2024/01/20 05:38:49;;;;;;;2.00;0.70;;;2.50;58.30;;;;;;6185804;23;20079;-67
2024/01/20 05:41:14;;;;;;;2.03;1.00;;;2.50;58.70;;;;;;6185639;23;19997;-68
2024/01/20 05:43:40;;;;;;;2.57;0.90;;;2.50;58.90;;;;;;6185447;23;20005;-67
2024/01/20 05:46:06;;;;;;;2.17;1.00;;;2.40;59.50;;;;;;6185379;23;20001;-65
2024/01/20 05:48:33;;;;;;;1.90;0.60;;;2.40;59.70;;;;;;6185922;23;20028;-65
2024/01/20 05:50:59;;;;;;;1.43;0.90;;;2.30;59.30;;;;;;6185771;23;20005;-65
2024/01/20 05:53:25;;;;;;;1.33;0.73;;;2.30;59.90;;;;;;6185381;23;20014;-67
2024/01/20 05:55:51;;;;;;;2.33;0.87;;;2.20;59.80;;;;;;6185124;23;20008;-67
2024/01/20 05:58:16;;;;;;;2.27;1.03;;;2.20;59.20;;;;;;6185135;23;19993;-65
2024/01/20 06:00:42;;;;;;;5.10;1.10;;;2.20;60.20;;;;;;6185200;23;20001;-65
2024/01/20 06:03:08;;;;;;;1.77;0.97;;;2.20;60.90;;;;;;6185302;23;20005;-70
2024/01/20 06:05:34;;;;;;;2.50;1.03;;;2.10;62.40;;;;;;6185159;23;20486;-68
2024/01/20 06:08:00;;;;;;;3.67;1.03;;;2.10;62.30;;;;;;6184819;23;20005;-66
2024/01/20 06:10:26;;;;;;;1.97;0.90;;;2.00;61.40;;;;;;6185981;23;20005;-65
2024/01/20 06:12:52;;;;;;;1.77;0.80;;;2.10;62.40;;;;;;6186064;23;20033;-67
2024/01/20 06:36:15;;;;;;;2.07;1.30;;;1.80;65.10;;;;;;6026997;23;20468;-69
2024/01/20 06:38:41;;;;;;;4.53;1.20;;;1.80;66.20;;;;;;6064774;23;20215;-67
2024/01/20 06:41:08;;;;;;;4.60;1.20;;;1.70;67.20;;;;;;6064946;23;20013;-69
2024/01/20 06:43:34;;;;;;;1.87;1.00;;;1.70;66.30;;;;;;6174070;23;20005;-68
2024/01/20 06:46:00;;;;;;;2.40;1.17;;;1.70;65.70;;;;;;6185003;23;20055;-68
2024/01/20 06:48:26;;;;;;;1.90;1.10;;;1.70;67.40;;;;;;6185341;23;20420;-68
2024/01/20 06:50:52;;;;;;;2.80;1.30;;;1.70;67.10;;;;;;6185462;23;20335;-68
2024/01/20 06:53:18;;;;;;;2.47;1.63;;;1.70;66.60;;;;;;6185024;23;20012;-69
2024/01/20 06:55:44;;;;;;;1.77;1.10;;;1.70;66.70;;;;;;6184937;23;20001;-68
2024/01/20 06:58:10;;;;;;;2.37;1.03;;;1.70;66.90;;;;;;6184916;23;20340;-68
2024/01/20 07:00:36;;;;;;;4.57;1.20;;;1.70;66.20;;;;;;6184858;23;20001;-68
2024/01/20 07:03:03;;;;;;;2.67;1.20;;;1.70;66.10;;;;;;6184992;23;20381;-68
2024/01/20 07:05:29;;;;;;;3.03;1.50;;;1.60;66.40;;;;;;6184907;23;20069;-69
2024/01/20 07:07:55;;;;;;;2.50;1.20;;;1.60;67.10;;;;;;6184623;23;20005;-69
2024/01/20 07:10:20;;;;;;;3.00;1.50;;;1.60;67.20;;;;;;6184882;23;20005;-68
2024/01/20 07:12:46;;;;;;;2.83;1.73;;;1.60;67.20;;;;;;6184406;23;20001;-68
2024/01/20 07:15:12;;;;;;;2.90;1.63;;;1.70;66.30;;;;;;6184228;23;20016;-72
2024/01/20 07:17:38;;;;;;;3.10;1.60;;;1.70;66.00;;;;;;6184605;23;20001;-68
2024/01/20 07:20:04;;;;;;;2.97;1.60;;;1.70;66.90;;;;;;6184646;23;20012;-70
2024/01/20 07:22:31;;;;;;;3.03;1.73;;;1.70;68.30;;;;;;6184643;23;20020;-70
2024/01/20 07:24:57;;;;;;;4.33;2.10;;;1.70;68.00;;;;;;6185267;23;20009;-68
2024/01/20 07:27:23;;;;;;;3.03;1.90;;;1.70;67.80;;;;;;6185045;23;20008;-68
2024/01/20 07:29:48;;;;;;;5.17;2.10;;;1.70;68.20;;;;;;6184730;23;20048;-67
2024/01/20 07:32:14;;;;;;;8.07;3.53;;;1.70;68.80;;;;;;6184125;23;20028;-71
2024/01/20 07:34:40;;;;;;;13.03;4.53;;;1.80;68.70;;;;;;6183577;23;20012;-70
2024/01/20 07:37:06;;;;;;;9.50;4.70;;;1.80;68.80;;;;;;6184337;23;20048;-75
2024/01/20 07:39:33;;;;;;;11.90;4.43;;;1.80;68.20;;;;;;6184699;23;20048;-73
2024/01/20 07:41:59;;;;;;;8.97;4.37;;;1.80;67.60;;;;;;6185639;23;20008;-71
2024/01/20 07:44:25;;;;;;;8.60;3.60;;;1.90;68.10;;;;;;6187060;23;19999;-73
2024/01/20 07:46:50;;;;;;;7.63;3.40;;;2.00;67.10;;;;;;6187251;23;20052;-75
2024/01/20 07:49:16;;;;;;;5.10;2.50;;;2.00;66.50;;;;;;6186799;23;19997;-68
2024/01/20 07:51:42;;;;;;;6.13;3.00;;;2.10;66.40;;;;;;6186673;23;20008;-73
2024/01/20 08:09:24;;;;;;;8.47;2.70;;;2.40;63.90;;;;;;5976923;23;20347;-68
2024/01/20 08:12:28;;;;;;;6.30;3.27;;;2.50;64.00;;;;;;6002593;23;20121;-72
2024/01/20 08:18:20;;;;;;;9.38;3.72;;;2.60;65.30;;;;;;5977762;23;20087;-68
2024/01/20 08:20:46;;;;;;;8.97;3.40;;;2.60;66.50;;;;;;6105950;23;20011;-69
2024/01/20 08:23:12;;;;;;;6.90;3.50;;;2.70;66.00;;;;;;6186291;23;20028;-69
2024/01/20 08:25:38;;;;;;;7.37;3.20;;;2.70;65.10;;;;;;6186027;23;20100;-68
2024/01/20 08:28:04;;;;;;;8.13;3.03;;;2.80;63.40;;;;;;6185968;23;20001;-68
2024/01/20 08:30:29;;;;;;;4.83;2.53;;;2.90;63.80;;;;;;6185638;23;20025;-69
2024/01/20 08:32:55;;;;;;;4.57;2.50;;;2.90;64.50;;;;;;6185638;23;20009;-68
2024/01/20 08:35:21;;;;;;;7.33;2.47;;;3.00;64.40;;;;;;6185775;23;20012;-67
2024/01/20 08:37:47;;;;;;;4.67;2.20;;;3.00;64.70;;;;;;6184576;23;20032;-68
2024/01/20 08:40:12;;;;;;;4.27;1.90;;;3.00;65.30;;;;;;6186075;23;20005;-74
2024/01/20 08:42:38;;;;;;;3.83;1.87;;;3.10;65.00;;;;;;6183420;23;20012;-69
2024/01/20 08:45:05;;;;;;;4.70;1.90;;;3.10;65.20;;;;;;6185271;23;20003;-69
2024/01/20 08:47:30;;;;;;;6.00;2.53;;;3.10;65.20;;;;;;6185335;23;20706;-74
2024/01/20 08:49:56;;;;;;;3.20;1.83;;;3.10;65.60;;;;;;6185145;23;20009;-72
2024/01/20 08:52:22;;;;;;;5.37;1.70;;;3.20;65.90;;;;;;6184608;23;20029;-73
2024/01/20 08:54:48;;;;;;;4.60;1.90;;;3.20;66.50;;;;;;6184826;23;20013;-72
2024/01/20 08:57:14;;;;;;;3.80;1.70;;;3.30;66.40;;;;;;6185483;23;20008;-75
2024/01/20 08:59:40;;;;;;;5.13;2.40;;;3.30;65.80;;;;;;6185990;23;20012;-68
2024/01/20 09:02:06;;;;;;;6.27;2.20;;;3.30;66.60;;;;;;6183552;23;20005;-67
2024/01/20 09:04:31;;;;;;;5.33;2.50;;;3.30;66.40;;;;;;6179034;23;20005;-68
2024/01/20 09:06:57;;;;;;;4.30;1.77;;;3.40;67.00;;;;;;6181348;23;20012;-73
2024/01/20 09:09:23;;;;;;;4.57;1.30;;;3.40;67.10;;;;;;6184981;23;20023;-68
2024/01/20 09:11:49;;;;;;;5.10;1.63;;;3.50;63.80;;;;;;6158675;23;20060;-68
2024/01/20 09:14:15;;;;;;;3.43;1.57;;;3.60;63.20;;;;;;6185114;23;20009;-66
2024/01/20 09:16:41;;;;;;;3.27;1.40;;;3.70;61.70;;;;;;6185462;23;20458;-65
2024/01/20 09:19:07;;;;;;;2.07;0.80;;;3.70;61.20;;;;;;6183748;23;20005;-74
2024/01/20 09:21:34;;;;;;;2.70;1.20;;;3.90;60.10;;;;;;6185849;23;20001;-77
2024/01/20 09:24:00;;;;;;;4.73;1.30;;;3.90;59.40;;;;;;6185404;23;20008;-77
2024/01/20 09:26:26;;;;;;;2.00;1.10;;;4.00;59.10;;;;;;6184666;23;20001;-76
2024/01/20 09:28:52;;;;;;;3.50;1.10;;;4.10;59.50;;;;;;6185639;23;20383;-74
2024/01/20 09:45:38;;;;;;;2.33;0.90;;;4.40;57.80;;;;;;5920847;24;20017;-77
2024/01/20 09:55:23;;;;;;;2.57;0.90;;;4.70;55.40;;;;;;5925303;24;20028;-76
2024/01/20 09:57:51;;;;;;;2.97;1.23;;;4.80;55.30;;;;;;5980545;24;20087;-76
2024/01/20 10:00:19;;;;;;;4.43;1.23;;;4.80;54.90;;;;;;6059027;23;20083;-75
2024/01/20 10:02:46;;;;;;;2.33;0.90;;;4.90;53.60;;;;;;6185015;23;20382;-76
2024/01/20 10:05:13;;;;;;;2.07;1.03;;;5.00;53.90;;;;;;6185215;23;20331;-75
2024/01/20 10:07:39;;;;;;;2.60;0.90;;;5.00;55.00;;;;;;6184154;23;20343;-76
2024/01/20 10:10:11;;;;;;;2.03;0.93;;;5.10;53.40;;;;;;6182082;23;20071;-74
2024/01/20 10:12:37;;;;;;;2.33;0.80;;;5.10;52.70;;;;;;6181846;23;20009;-72
2024/01/20 10:15:04;;;;;;;3.93;0.97;;;5.20;52.40;;;;;;6183249;23;20020;-73
2024/01/20 10:17:35;;;;;;;2.57;1.00;;;5.30;53.40;;;;;;6185087;23;20005;-72
2024/01/20 10:20:01;;;;;;;2.80;1.07;;;5.30;53.80;;;;;;6185269;23;20089;-77
2024/01/20 10:22:27;;;;;;;0.83;0.40;;;5.40;52.90;;;;;;6185476;23;20005;-73
2024/01/20 10:24:53;;;;;;;2.13;1.10;;;5.40;51.30;;;;;;6185035;23;20068;-74
2024/01/20 10:27:20;;;;;;;2.23;0.90;;;5.50;51.50;;;;;;6184900;23;20001;-74
2024/01/20 10:29:47;;;;;;;2.33;0.70;;;5.60;51.50;;;;;;6184927;23;20001;-74
2024/01/20 10:32:13;;;;;;;3.27;0.70;;;5.70;51.00;;;;;;6184760;23;20013;-74
2024/01/20 10:34:39;;;;;;;3.03;1.10;;;5.70;50.70;;;;;;6184788;23;20428;-76
2024/01/20 10:37:13;;;;;;;1.33;0.60;;;5.80;50.70;;;;;;6185127;23;19997;-76
2024/01/20 10:39:43;;;;;;;1.43;0.70;;;5.90;50.50;;;;;;6184923;23;19997;-75
2024/01/20 10:42:14;;;;;;;1.47;0.80;;;6.00;50.10;;;;;;6184683;23;20009;-75
2024/01/20 10:45:00;;;;;;;1.90;0.80;;;6.10;50.80;;;;;;6184907;23;20002;-75
2024/01/20 10:47:36;;;;;;;2.40;1.20;;;6.00;50.00;;;;;;6184921;23;20032;-74
2024/01/20 10:50:07;;;;;;;2.37;0.97;;;6.10;51.20;;;;;;6184871;23;20008;-76
2024/01/20 10:52:36;;;;;;;2.70;0.97;;;6.10;50.70;;;;;;6184481;23;20008;-71
2024/01/20 10:55:03;;;;;;;2.17;0.83;;;6.10;51.50;;;;;;6184850;23;20020;-76
2024/01/20 10:57:30;;;;;;;2.37;0.90;;;6.10;50.80;;;;;;6185091;23;20427;-77
2024/01/20 10:59:58;;;;;;;2.33;1.00;;;6.20;50.80;;;;;;6186090;23;20009;-76
2024/01/20 11:02:25;;;;;;;1.77;0.87;;;6.20;51.10;;;;;;6185487;23;19997;-73
2024/01/20 11:04:51;;;;;;;2.10;1.00;;;6.20;52.60;;;;;;6185822;23;20052;-75
2024/01/20 11:07:32;;;;;;;9.80;1.00;;;6.30;51.10;;;;;;6185461;23;19997;-74
2024/01/20 11:27:04;;;;;;;3.27;1.57;;;6.50;51.10;;;;;;5934841;24;20009;-77
2024/01/20 11:32:44;;;;;;;2.15;1.15;;;6.60;52.70;;;;;;6007527;23;20004;-75
2024/01/20 11:35:10;;;;;;;2.17;1.10;;;6.70;51.70;;;;;;6087486;23;20018;-74
2024/01/20 11:37:36;;;;;;;2.13;1.13;;;6.70;51.20;;;;;;6126956;23;20371;-73
2024/01/20 11:40:07;;;;;;;4.43;1.40;;;6.70;49.60;;;;;;6186912;23;20006;-75
2024/01/20 11:42:34;;;;;;;2.97;1.40;;;6.70;50.60;;;;;;6186378;23;20016;-72
2024/01/20 11:45:05;;;;;;;1.80;0.87;;;6.70;50.00;;;;;;6186239;23;20080;-70
2024/01/20 11:47:31;;;;;;;4.47;0.90;;;6.70;48.60;;;;;;6185308;23;20005;-69
2024/01/20 11:49:58;;;;;;;1.43;0.93;;;6.80;50.80;;;;;;6186362;23;20024;-74
2024/01/20 11:52:27;;;;;;;1.90;1.00;;;6.80;50.70;;;;;;6186380;23;20001;-76
2024/01/20 11:54:53;;;;;;;2.53;1.00;;;6.80;49.60;;;;;;6186249;23;20236;-76
2024/01/20 11:57:24;;;;;;;2.20;1.00;;;6.90;50.40;;;;;;6186393;23;20347;-76
2024/01/20 11:59:50;;;;;;;2.67;1.33;;;6.90;50.90;;;;;;6186513;23;20005;-75
2024/01/20 12:02:16;;;;;;;2.43;1.03;;;6.90;50.60;;;;;;6185780;23;20005;-74
2024/01/20 12:04:42;;;;;;;3.37;1.30;;;6.90;50.00;;;;;;6186430;23;20005;-76
2024/01/20 12:07:09;;;;;;;1.97;0.90;;;7.00;50.10;;;;;;6185812;23;20033;-74
2024/01/20 12:09:35;;;;;;;4.40;1.47;;;7.10;50.40;;;;;;6186129;23;20020;-77
2024/01/20 12:12:02;;;;;;;2.30;1.20;;;7.10;49.40;;;;;;6186594;23;20001;-64
2024/01/20 12:14:27;;;;;;;3.63;1.03;;;7.20;49.00;;;;;;6186490;23;20013;-65
2024/01/20 12:16:54;;;;;;;3.07;1.10;;;7.30;50.50;;;;;;6186068;23;20028;-66
2024/01/20 12:19:20;;;;;;;2.70;1.10;;;7.30;49.70;;;;;;6186442;23;20327;-66
2024/01/20 12:21:46;;;;;;;3.20;0.90;;;7.40;50.20;;;;;;6185521;23;20081;-66
2024/01/20 12:24:13;;;;;;;1.40;0.80;;;7.50;51.90;;;;;;6185985;23;20001;-65
2024/01/20 12:26:41;;;;;;;2.33;0.70;;;7.60;51.00;;;;;;6186281;23;20031;-65
2024/01/20 12:29:07;;;;;;;1.70;0.90;;;7.80;59.60;;;;;;6186132;23;20001;-66
2024/01/20 12:31:33;;;;;;;2.37;1.30;;;7.80;57.50;;;;;;6185799;23;20001;-70
2024/01/20 12:33:59;;;;;;;2.00;1.10;;;7.90;60.70;;;;;;6186708;23;20105;-75
2024/01/20 12:36:26;;;;;;;3.30;1.07;;;7.90;60.30;;;;;;6186691;23;20036;-74
2024/01/20 12:38:52;;;;;;;2.17;1.00;;;7.90;60.10;;;;;;6186621;23;20331;-76
2024/01/20 12:41:19;;;;;;;1.87;0.90;;;8.00;60.80;;;;;;6187045;23;20380;-75
2024/01/20 12:43:48;;;;;;;2.87;1.00;;;8.00;59.40;;;;;;6186827;23;20084;-75
2024/01/20 12:57:27;;;;;;;2.17;0.70;;;7.90;48.70;;;;;;6065339;23;20055;-71
2024/01/20 13:10:05;;;;;;;1.73;0.80;;;7.90;46.90;;;;;;5898135;24;20472;-66
2024/01/20 13:12:32;;;;;;;3.67;0.60;;;7.80;47.10;;;;;;5948116;24;20009;-66
2024/01/20 13:14:58;;;;;;;1.70;0.70;;;7.80;46.80;;;;;;6127488;23;20045;-66
2024/01/20 13:17:25;;;;;;;1.30;0.80;;;7.80;46.80;;;;;;6129934;23;20001;-66
2024/01/20 13:19:51;;;;;;;1.93;0.70;;;7.80;47.60;;;;;;6156030;23;20052;-67
2024/01/20 13:22:17;;;;;;;2.50;0.80;;;7.80;45.90;;;;;;6152992;23;20001;-65
2024/01/20 13:24:42;;;;;;;3.17;0.73;;;7.70;45.90;;;;;;6151953;23;20084;-66
2024/01/20 13:27:08;;;;;;;2.63;0.90;;;7.70;45.80;;;;;;6152256;23;20017;-65
2024/01/20 13:29:34;;;;;;;1.40;0.77;;;7.70;46.70;;;;;;6155338;23;20029;-66
2024/01/20 13:32:00;;;;;;;1.30;0.70;;;7.70;46.40;;;;;;6155758;23;20063;-66
2024/01/20 13:34:26;;;;;;;2.63;0.70;;;7.70;45.70;;;;;;6155447;23;20045;-67
2024/01/20 13:36:52;;;;;;;2.20;0.70;;;7.70;46.40;;;;;;6156028;23;20001;-68
2024/01/20 13:39:18;;;;;;;1.73;0.90;;;7.70;45.90;;;;;;6155721;23;20009;-68
2024/01/20 13:41:44;;;;;;;1.50;0.70;;;7.80;45.60;;;;;;6155808;23;20009;-71
2024/01/20 13:44:09;;;;;;;1.90;0.90;;;7.70;46.10;;;;;;6154258;23;20006;-75
2024/01/20 13:46:35;;;;;;;0.97;0.60;;;7.80;47.00;;;;;;6155404;23;20076;-73
2024/01/20 13:49:01;;;;;;;1.87;0.70;;;7.70;45.50;;;;;;6155551;23;20005;-67
2024/01/20 13:51:31;;;;;;;1.90;0.90;;;7.70;45.80;;;;;;6155724;23;20049;-65
2024/01/20 13:53:58;;;;;;;2.53;1.00;;;7.70;45.90;;;;;;6155711;23;20078;-66
2024/01/20 13:56:25;;;;;;;1.40;0.83;;;7.70;46.70;;;;;;6155644;23;19998;-65
2024/01/20 13:58:52;;;;;;;2.40;0.97;;;7.60;45.90;;;;;;6130117;23;20005;-75
2024/01/20 14:01:22;;;;;;;2.43;0.80;;;7.70;46.50;;;;;;6155979;23;20013;-70
2024/01/20 14:03:51;;;;;;;1.67;0.90;;;7.70;46.90;;;;;;6155696;23;20015;-65
2024/01/20 14:06:18;;;;;;;1.53;0.77;;;7.80;46.50;;;;;;6155419;23;20420;-79
2024/01/20 14:08:44;;;;;;;1.23;0.67;;;7.80;46.40;;;;;;6153617;23;20093;-80
2024/01/20 14:11:09;;;;;;;4.27;1.30;;;7.80;46.60;;;;;;6154168;23;20041;-79
2024/01/20 14:13:35;;;;;;;2.43;1.30;;;7.80;47.20;;;;;;6156652;23;20432;-80
2024/01/20 14:16:02;;;;;;;2.00;1.00;;;7.80;47.30;;;;;;6156121;23;20006;-81
2024/01/20 14:18:28;;;;;;;3.30;1.53;;;7.80;48.20;;;;;;6155630;23;20009;-80
2024/01/20 14:20:54;;;;;;;4.43;1.90;;;7.80;48.40;;;;;;6155791;23;20126;-81
2024/01/20 14:24:24;;;;;;;6.20;1.20;;;7.80;48.80;;;;;;6155240;23;19997;-80
2024/01/20 14:38:04;;;;;;;2.03;1.10;;;7.60;48.60;;;;;;6008726;23;20474;-80
2024/01/20 14:47:32;;;;;;;2.50;1.13;;;7.40;49.00;;;;;;5883431;24;20016;-79
2024/01/20 14:50:00;;;;;;;2.07;1.00;;;7.30;49.40;;;;;;5990262;23;20424;-82
2024/01/20 14:52:27;;;;;;;1.80;1.00;;;7.20;49.10;;;;;;6087912;23;20002;-82
2024/01/20 14:54:52;;;;;;;2.27;1.10;;;7.20;49.30;;;;;;6093816;23;20369;-82
2024/01/20 14:57:18;;;;;;;2.67;1.30;;;7.10;49.40;;;;;;6093946;23;20010;-82
2024/01/20 14:59:44;;;;;;;2.97;1.40;;;7.00;49.50;;;;;;6094033;23;20059;-80
2024/01/20 15:02:10;;;;;;;2.77;1.70;;;7.00;50.20;;;;;;6093774;23;20010;-80
2024/01/20 15:04:36;;;;;;;4.00;2.10;;;6.90;50.10;;;;;;6093866;23;20014;-81
2024/01/20 15:07:03;;;;;;;2.90;1.70;;;6.80;50.20;;;;;;6093667;23;20029;-81
2024/01/20 15:09:29;;;;;;;5.13;2.10;;;6.80;50.50;;;;;;6122857;23;20097;-81
2024/01/20 15:11:55;;;;;;;4.00;2.03;;;6.80;50.50;;;;;;6144666;23;20093;-81
2024/01/20 15:14:21;;;;;;;3.23;1.80;;;6.70;51.10;;;;;;6154904;23;20325;-82
2024/01/20 15:16:47;;;;;;;4.10;2.13;;;6.70;51.70;;;;;;6154736;23;20005;-82
2024/01/20 15:19:12;;;;;;;3.17;2.10;;;6.70;52.20;;;;;;6180188;23;20060;-77
2024/01/20 15:21:38;;;;;;;6.13;2.53;;;6.60;52.00;;;;;;6184725;23;20080;-82
2024/01/20 15:24:04;;;;;;;4.83;2.70;;;6.60;51.90;;;;;;6184854;23;20054;-81
2024/01/20 15:26:30;;;;;;;4.23;2.20;;;6.60;52.10;;;;;;6185347;23;20028;-79
2024/01/20 15:28:56;;;;;;;3.13;1.73;;;6.60;52.80;;;;;;6186680;23;19993;-67
2024/01/20 15:31:21;;;;;;;3.60;1.73;;;6.60;52.70;;;;;;6158431;23;20012;-66
2024/01/20 15:33:47;;;;;;;3.27;1.50;;;6.50;52.10;;;;;;6184367;23;20008;-66
2024/01/20 15:36:14;;;;;;;4.20;1.67;;;6.60;51.90;;;;;;6185071;23;20016;-67
2024/01/20 15:38:40;;;;;;;2.60;1.60;;;6.50;52.10;;;;;;6184620;23;20424;-67
2024/01/20 15:41:06;;;;;;;3.70;1.80;;;6.50;52.40;;;;;;6184526;23;20008;-66
2024/01/20 15:43:31;;;;;;;2.97;1.83;;;6.40;52.20;;;;;;6184486;23;20335;-68
2024/01/20 15:45:57;;;;;;;3.00;1.70;;;6.40;52.60;;;;;;6184429;23;20047;-67
2024/01/20 15:48:23;;;;;;;4.17;1.90;;;6.40;52.90;;;;;;6185343;23;19997;-79
2024/01/20 15:50:50;;;;;;;6.83;2.23;;;6.30;53.60;;;;;;6183963;23;20005;-75
2024/01/20 15:53:15;;;;;;;3.37;1.63;;;6.30;52.20;;;;;;6181899;23;20009;-66
2024/01/20 15:55:41;;;;;;;5.40;1.60;;;6.30;53.30;;;;;;6181831;23;20343;-67
2024/01/20 15:58:07;;;;;;;6.47;2.50;;;6.30;51.70;;;;;;6183435;23;20001;-66
2024/01/20 16:22:42;;;;;;;4.97;2.00;;;5.70;54.20;;;;;;5920096;24;20021;-67
2024/01/20 16:25:08;;;;;;;4.30;2.30;;;5.60;54.90;;;;;;5928454;24;20012;-67
2024/01/20 16:27:34;;;;;;;4.97;2.20;;;5.70;55.10;;;;;;6008164;23;20043;-66
2024/01/20 16:30:00;;;;;;;3.93;2.37;;;5.60;54.80;;;;;;6155165;23;20133;-66
2024/01/20 16:32:26;;;;;;;4.93;2.17;;;5.60;54.70;;;;;;6156125;23;20439;-66
2024/01/20 16:34:52;;;;;;;4.17;2.10;;;5.60;54.00;;;;;;6156216;23;20020;-68